createdAt,value
2023-01-19T00:02:01.153Z,60.58
2023-01-19T00:07:05.307Z,54.95
2023-01-19T00:12:08.887Z,56.53
2023-01-19T00:17:13.672Z,59.70
2023-01-19T00:22:17.090Z,58.55
2023-01-19T00:27:20.701Z,60.42
2023-01-19T00:32:25.483Z,59.65
2023-01-19T00:37:28.871Z,68.20
2023-01-19T00:42:41.355Z,63.53
2023-01-19T00:47:46.660Z,63.57
2023-01-19T00:52:50.711Z,63.63
2023-01-19T00:57:54.160Z,61.25
2023-01-19T01:02:59.403Z,63.72
2023-01-19T01:08:03.177Z,62.83
2023-01-19T01:13:20.905Z,60.17
2023-01-19T01:18:27.406Z,68.07
2023-01-19T01:23:30.800Z,55.58
2023-01-19T01:28:34.552Z,55.72
2023-01-19T01:33:40.404Z,48.67
2023-01-19T01:38:44.831Z,42.65
2023-01-19T01:43:50.185Z,32.47
2023-01-19T01:49:01.718Z,34.00
2023-01-19T01:54:11.802Z,30.90
2023-01-19T01:59:26.195Z,24.63
2023-01-19T02:04:32.200Z,21.52
2023-01-19T02:09:55.447Z,13.75
2023-01-19T02:14:58.971Z,12.47
2023-01-19T02:20:04.032Z,9.73
2023-01-19T02:25:09.920Z,9.35
2023-01-19T02:30:16.638Z,8.13
2023-01-19T02:35:21.341Z,8.05
2023-01-19T02:40:28.068Z,8.60
2023-01-19T02:45:31.828Z,9.65
2023-01-19T02:50:46.267Z,9.30
2023-01-19T02:55:56.818Z,8.30
2023-01-19T03:01:08.808Z,9.45
2023-01-19T03:06:21.713Z,9.70
2023-01-19T03:11:32.689Z,8.98
2023-01-19T03:16:40.853Z,6.28
2023-01-19T03:21:48.445Z,8.52
2023-01-19T03:26:58.863Z,7.65
2023-01-19T03:32:09.083Z,9.65
2023-01-19T03:37:14.747Z,8.05
2023-01-19T03:42:21.395Z,10.30
2023-01-19T03:47:26.305Z,7.22
2023-01-19T03:52:32.627Z,8.05
2023-01-19T03:57:38.513Z,10.43
2023-01-19T04:02:42.242Z,9.32
2023-01-19T04:07:45.712Z,8.95
2023-01-19T04:12:51.217Z,9.38
2023-01-19T04:17:55.320Z,11.02
2023-01-19T04:23:01.851Z,13.98
2023-01-19T04:28:07.363Z,14.63
2023-01-19T04:33:10.783Z,17.25
2023-01-19T04:38:14.428Z,17.15
2023-01-19T04:43:19.627Z,17.52
2023-01-19T04:48:23.104Z,21.80
2023-01-19T04:53:26.609Z,18.88
2023-01-19T04:58:31.518Z,18.20
2023-01-19T05:03:35.131Z,22.30
2023-01-19T05:08:38.853Z,21.02
2023-01-19T05:13:43.869Z,20.65
2023-01-19T05:18:47.493Z,18.77
2023-01-19T05:23:51.129Z,20.65
2023-01-19T05:28:56.578Z,20.90
2023-01-19T05:34:00.032Z,15.00
2023-01-19T05:39:03.453Z,17.63
2023-01-19T05:44:08.403Z,15.50
2023-01-19T05:49:13.664Z,13.90
2023-01-19T05:54:17.094Z,14.05
2023-01-19T05:59:24.465Z,13.23
2023-01-19T06:04:28.050Z,14.45
2023-01-19T06:09:31.546Z,13.82
2023-01-19T06:14:37.043Z,11.80
2023-01-19T06:19:40.787Z,13.93
2023-01-19T06:24:44.324Z,11.13
2023-01-19T06:29:49.193Z,10.98
2023-01-19T06:34:54.037Z,11.63
2023-01-19T06:39:57.503Z,12.80
2023-01-19T06:45:02.321Z,12.95
2023-01-19T06:50:06.412Z,13.18
2023-01-19T06:55:10.975Z,14.10
2023-01-19T07:00:17.111Z,12.10
2023-01-19T07:05:22.146Z,13.57
2023-01-19T07:10:25.882Z,14.80
2023-01-19T07:15:50.687Z,14.40
2023-01-19T07:20:54.094Z,12.95
2023-01-19T07:25:57.549Z,13.40
2023-01-19T07:31:02.492Z,15.57
2023-01-19T07:36:07.215Z,15.70
2023-01-19T07:41:11.546Z,15.07
2023-01-19T07:46:16.424Z,19.88
2023-01-19T07:51:19.938Z,15.30
2023-01-19T07:56:24.350Z,15.68
2023-01-19T08:01:30.006Z,14.35
2023-01-19T08:06:36.097Z,15.15
2023-01-19T08:11:39.819Z,14.25
2023-01-19T08:16:44.629Z,14.65
2023-01-19T08:21:48.313Z,20.10
2023-01-19T08:26:51.847Z,18.05
2023-01-19T08:31:58.947Z,18.23
2023-01-19T08:37:02.555Z,20.67
2023-01-19T08:42:06.121Z,17.83
2023-01-19T08:47:11.376Z,19.23
2023-01-19T08:52:14.798Z,19.42
2023-01-19T08:57:18.659Z,19.40
2023-01-19T09:02:24.639Z,18.95
2023-01-19T09:07:30.526Z,20.10
2023-01-19T09:12:35.937Z,19.35
2023-01-19T09:17:41.121Z,19.10
2023-01-19T09:22:44.585Z,16.80
2023-01-19T09:27:48.050Z,18.38
2023-01-19T09:32:52.828Z,13.13
2023-01-19T09:37:56.251Z,14.93
2023-01-19T09:43:12.942Z,12.82
2023-01-19T09:48:27.798Z,13.45
2023-01-19T09:53:44.767Z,15.07
2023-01-19T09:58:49.741Z,13.88
2023-01-19T10:04:11.203Z,15.52
2023-01-19T10:09:23.370Z,11.05
2023-01-19T10:14:32.804Z,15.02
2023-01-19T10:19:45.113Z,13.90
2023-01-19T10:24:54.309Z,13.20
2023-01-19T10:29:58.669Z,12.20
2023-01-19T10:35:13.596Z,14.05
2023-01-19T10:40:26.562Z,17.58
2023-01-19T10:45:32.173Z,12.90
2023-01-19T10:50:39.838Z,17.08
2023-01-19T10:55:45.057Z,10.77
2023-01-19T11:00:48.713Z,13.20
2023-01-19T11:05:53.924Z,13.27
2023-01-19T11:11:02.412Z,11.00
2023-01-19T11:16:08.685Z,11.45
2023-01-19T11:21:16.685Z,13.07
2023-01-19T11:26:27.958Z,9.20
2023-01-19T11:31:34.966Z,11.20
2023-01-19T11:36:39.742Z,9.48
2023-01-19T11:41:43.562Z,15.98
2023-01-19T11:46:51.683Z,12.32
2023-01-19T11:52:03.426Z,10.77
2023-01-19T11:57:13.669Z,10.75
2023-01-19T12:02:28.095Z,13.07
2023-01-19T12:07:37.765Z,12.15
2023-01-19T12:12:42.576Z,13.10
2023-01-19T12:17:49.721Z,11.15
2023-01-19T12:23:04.001Z,11.90
2023-01-19T12:28:13.729Z,13.88
2023-01-19T12:33:35.979Z,14.70
2023-01-19T12:38:47.358Z,11.95
2023-01-19T12:44:30.779Z,14.25
2023-01-19T12:49:44.574Z,10.02
2023-01-19T12:55:00.594Z,12.60
2023-01-19T13:00:09.213Z,11.38
2023-01-19T13:05:18.871Z,10.43
2023-01-19T13:10:59.954Z,13.95
2023-01-19T13:17:00.315Z,13.43
2023-01-19T13:22:50.619Z,19.25
2023-01-19T13:27:54.028Z,10.43
2023-01-19T13:33:05.535Z,10.23
2023-01-19T13:38:14.417Z,13.65
2023-01-19T13:43:22.989Z,12.45
2023-01-19T13:48:28.581Z,12.55
2023-01-19T13:53:32.546Z,9.60
2023-01-19T13:58:36.520Z,9.85
2023-01-19T14:03:41.937Z,11.57
2023-01-19T14:08:45.332Z,9.00
2023-01-19T14:13:48.737Z,10.68
2023-01-19T14:19:02.342Z,10.48
2023-01-19T14:24:10.513Z,16.42
2023-01-19T14:29:19.963Z,16.38
2023-01-19T14:34:41.803Z,10.30
2023-01-19T14:39:47.262Z,8.52
2023-01-19T14:44:53.552Z,10.48
2023-01-19T14:50:03.713Z,10.13
2023-01-19T14:55:18.147Z,9.80
2023-01-19T15:00:22.705Z,15.43
2023-01-19T15:05:27.529Z,10.85
2023-01-19T15:10:32.147Z,11.25
2023-01-19T15:15:37.163Z,16.35
2023-01-19T15:20:41.961Z,10.13
2023-01-19T15:25:45.849Z,17.27
2023-01-19T15:30:49.308Z,16.45
2023-01-19T15:35:54.851Z,18.50
2023-01-19T15:40:58.750Z,24.05
2023-01-19T15:46:03.090Z,20.58
2023-01-19T15:51:13.429Z,15.85
2023-01-19T15:56:18.188Z,16.80
2023-01-19T16:01:23.869Z,19.02
2023-01-19T16:06:28.989Z,20.67
2023-01-19T16:11:35.384Z,21.27
2023-01-19T16:16:38.919Z,26.85
2023-01-19T16:21:43.962Z,22.77
2023-01-19T16:26:47.446Z,20.95
2023-01-19T16:31:51.589Z,26.95
2023-01-19T16:36:56.678Z,26.40
2023-01-19T16:42:00.151Z,28.77
2023-01-19T16:47:04.069Z,31.67
2023-01-19T16:52:09.397Z,39.97
2023-01-19T16:57:13.185Z,34.95
2023-01-19T17:02:16.818Z,36.17
2023-01-19T17:07:21.870Z,37.97
2023-01-19T17:12:25.511Z,39.17
2023-01-19T17:17:29.292Z,30.50
2023-01-19T17:22:34.121Z,31.35
2023-01-19T17:27:37.555Z,35.58
2023-01-19T17:32:42.751Z,35.85
2023-01-19T17:38:05.920Z,37.08
2023-01-19T17:43:09.583Z,35.17
2023-01-19T17:48:13.416Z,35.70
2023-01-19T17:53:18.330Z,33.85
2023-01-19T17:58:23.682Z,39.97
2023-01-19T18:03:27.083Z,34.50
2023-01-19T18:08:32.514Z,38.38
2023-01-19T18:13:36.294Z,40.80
2023-01-19T18:18:41.109Z,40.70
2023-01-19T18:23:46.211Z,38.85
2023-01-19T18:28:50.710Z,48.30
2023-01-19T18:33:54.543Z,48.92
2023-01-19T18:38:59.404Z,44.45
2023-01-19T18:44:02.859Z,42.45
2023-01-19T18:49:09.720Z,39.97
2023-01-19T18:54:14.671Z,38.33
2023-01-19T18:59:18.203Z,37.28
2023-01-19T19:04:21.711Z,40.47
2023-01-19T19:09:26.594Z,38.35
2023-01-19T19:14:30.564Z,43.67
2023-01-19T19:19:34.847Z,54.75
2023-01-19T19:24:40.264Z,51.63
2023-01-19T19:29:44.989Z,53.28
2023-01-19T19:34:50.473Z,47.95
2023-01-19T19:39:55.840Z,46.70
2023-01-19T19:44:59.202Z,51.90
2023-01-19T19:50:02.674Z,49.80
2023-01-19T19:55:09.829Z,51.58
2023-01-19T20:00:14.315Z,44.53
2023-01-19T20:05:17.948Z,44.75
2023-01-19T20:10:22.789Z,46.38
2023-01-19T20:15:26.306Z,49.40
2023-01-19T20:20:30.044Z,54.47
2023-01-19T20:25:41.133Z,58.22
2023-01-19T20:30:45.337Z,51.10
2023-01-19T20:35:48.807Z,52.33
2023-01-19T20:40:54.616Z,60.40
2023-01-19T20:46:06.065Z,66.57
2023-01-19T20:51:11.308Z,67.72
2023-01-19T20:56:16.993Z,66.65
2023-01-19T21:01:23.370Z,50.58
2023-01-19T21:06:27.162Z,58.38
2023-01-19T21:11:32.893Z,60.72
2023-01-19T21:16:37.041Z,61.42
2023-01-19T21:21:41.317Z,62.50
2023-01-19T21:26:46.378Z,54.85
2023-01-19T21:31:49.918Z,57.45
2023-01-19T21:36:53.752Z,61.08
2023-01-19T21:41:58.543Z,57.13
2023-01-19T21:47:02.094Z,60.00
2023-01-19T21:52:06.068Z,62.53
2023-01-19T21:57:10.878Z,59.10
2023-01-19T22:02:14.582Z,74.32
2023-01-19T22:07:18.792Z,62.45
2023-01-19T22:12:23.705Z,67.10
2023-01-19T22:17:27.436Z,70.53
2023-01-19T22:22:34.059Z,69.35
2023-01-19T22:27:38.882Z,73.25
2023-01-19T22:32:42.376Z,75.70
2023-01-19T22:37:45.766Z,73.07
2023-01-19T22:42:50.717Z,79.55
2023-01-19T22:47:54.158Z,75.95
2023-01-19T22:52:58.472Z,83.05
2023-01-19T22:58:03.384Z,75.00
2023-01-19T23:03:07.158Z,83.18
2023-01-19T23:08:10.824Z,92.15
2023-01-19T23:13:15.610Z,82.28
2023-01-19T23:18:19.666Z,79.10
2023-01-19T23:23:23.773Z,74.78
2023-01-19T23:28:28.763Z,72.85
2023-01-19T23:33:32.278Z,72.82
2023-01-19T23:38:35.805Z,77.00
2023-01-19T23:43:40.632Z,82.57
2023-01-19T23:48:44.340Z,79.18
2023-01-19T23:53:48.629Z,90.30
2023-01-19T23:58:57.222Z,95.03
